Cimic, Illinois
Current Conditions -  °F | °C
As of 2:15 PM on Monday 24 Nov 2014 (Local Time) from KTAZ Reporting Station
Overcast Overcast  
Wind Chill: 22°   Ceiling: 3900
Heat Index: 34°   Visibility: 10mi
Dew Point: 30°   Wind: 22mph
Humidity: 87%   Direction: 260°W
Pressure: 29.7"   Gusts: 29mph
Location:  39.5683°N, 89.6622°W
Report Text: KTAZ 242015Z AUTO 26019G25KT 10SM SCT024 SCT029 OVC039 01/M01 A2970 RMK AO2
Loading
Personal Weather Stations






























Interactive Weather Map New forecast layout! Learn more

10-Day Weather Forecast

Advertisements
Track Severe Weather on mobile